Aeroporto :
LOGIN :

Iscrizione | Disclaimer

   EN    FR    IT 

 










Sommario :    VFR   VFR Marginale   IFR   IFR Intensivo   IFR Molto Intensivo
Visibilità : 
Base nubi : 
>= 8 km
>= 3000ft
5 / 8 km
1000 / 3000 ft
1500m / 5 km
500 / 1000 ft
800 / 1500m
200 / 500 ft
< 800m
< 200 ft
Simboli :   Temporali  Nebbia  Neve Forte  Precipitazioni Forti  Vento > 20 kt
SIGMETs :   Varie  Temporali  Ghiacco  Turbolenza  Onda orograficha  Ceneri Vulcaniche






- Altitudine del aeroporto : 46 ft
- Codice IATA : PAF


LPMT - Montijo Air Base

ULTIMO METAR :
  • 251200Z 31006KT 270V350 9999 SCT030 16/09 Q1027

METARs OBSOLETI :
  • 251100Z 33008KT 300V360 9999 BKN030 16/09 Q1027
  • 251000Z 34007KT 310V010 9999 BKN030 14/08 Q1027

TAF TAF LPMT
Valido dal 25 a 12 ore il 26 a 12 ore UTC


251111Z 2512/2612 31008KT 9999 BKN030
BECMG 2514/2516 26012KT 8000 -RA SCT010 BKN018
PROB40
TEMPO 2515/2518 4000 -DZRA SCT006 BKN009
BECMG 2517/2519 34012KT 9999 NSW SCT020 BKN035
BECMG 2522/2524 33005KT SCT035



MetMap, La meteo Aeronautica in un colpo d'occhio ! - Copyright ORBIFLY Dicembre 2007 - Disclaimer

ORBIFLY MET'MAP TEAM :

Programmazione e sviluppo : Alexandra Zaïnal
Concezione : Baudouin d'Aumeries
Aiuto per la programmazione : Marc-Olivier Méhu
Supporto tecnico e logistico : Manuel Goepfert
Aiuto per la traduzione : Arnaldo La Scala

Contatto : metmap@orbifly.com




FONTI E CREDITI :

   NOAA